sensor_id;sensor_type;location;lat;lon;timestamp;P1;durP1;ratioP1;P2;durP2;ratioP2
49237;SDS011;35069;47.906;1.892;2022-07-23T00:01:26;5.40;;;4.38;;
49237;SDS011;35069;47.906;1.892;2022-07-23T00:03:54;4.82;;;4.43;;
49237;SDS011;35069;47.906;1.892;2022-07-23T00:06:20;4.93;;;4.63;;
49237;SDS011;35069;47.906;1.892;2022-07-23T00:08:46;5.10;;;4.50;;
49237;SDS011;35069;47.906;1.892;2022-07-23T00:11:12;6.22;;;4.65;;
49237;SDS011;35069;47.906;1.892;2022-07-23T00:13:38;5.72;;;5.22;;
49237;SDS011;35069;47.906;1.892;2022-07-23T00:16:03;6.32;;;5.75;;
49237;SDS011;35069;47.906;1.892;2022-07-23T00:18:29;5.05;;;4.65;;
49237;SDS011;35069;47.906;1.892;2022-07-23T00:20:55;5.70;;;5.20;;
49237;SDS011;35069;47.906;1.892;2022-07-23T00:23:21;7.20;;;6.20;;
49237;SDS011;35069;47.906;1.892;2022-07-23T00:25:46;6.10;;;5.28;;
49237;SDS011;35069;47.906;1.892;2022-07-23T00:28:12;7.57;;;5.75;;
49237;SDS011;35069;47.906;1.892;2022-07-23T00:30:38;6.78;;;6.25;;
49237;SDS011;35069;47.906;1.892;2022-07-23T00:33:05;6.25;;;5.65;;
49237;SDS011;35069;47.906;1.892;2022-07-23T00:35:33;6.50;;;5.90;;
49237;SDS011;35069;47.906;1.892;2022-07-23T00:38:01;6.18;;;5.65;;
49237;SDS011;35069;47.906;1.892;2022-07-23T00:40:28;6.85;;;6.18;;
49237;SDS011;35069;47.906;1.892;2022-07-23T00:42:54;7.55;;;6.25;;
49237;SDS011;35069;47.906;1.892;2022-07-23T00:45:20;6.45;;;5.85;;
49237;SDS011;35069;47.906;1.892;2022-07-23T00:47:46;7.07;;;6.35;;
49237;SDS011;35069;47.906;1.892;2022-07-23T00:50:12;5.70;;;5.22;;
49237;SDS011;35069;47.906;1.892;2022-07-23T00:52:38;5.63;;;5.13;;
49237;SDS011;35069;47.906;1.892;2022-07-23T00:55:05;7.60;;;6.40;;
49237;SDS011;35069;47.906;1.892;2022-07-23T00:57:32;6.05;;;5.55;;
49237;SDS011;35069;47.906;1.892;2022-07-23T00:59:59;6.00;;;5.35;;
49237;SDS011;35069;47.906;1.892;2022-07-23T01:02:25;6.50;;;5.90;;
49237;SDS011;35069;47.906;1.892;2022-07-23T01:04:51;7.75;;;5.75;;
49237;SDS011;35069;47.906;1.892;2022-07-23T01:07:16;6.60;;;5.80;;
49237;SDS011;35069;47.906;1.892;2022-07-23T01:09:43;7.32;;;6.70;;
49237;SDS011;35069;47.906;1.892;2022-07-23T01:12:10;7.38;;;6.78;;
49237;SDS011;35069;47.906;1.892;2022-07-23T01:14:36;6.15;;;5.55;;
49237;SDS011;35069;47.906;1.892;2022-07-23T01:17:02;8.15;;;6.32;;
49237;SDS011;35069;47.906;1.892;2022-07-23T01:19:27;6.00;;;5.50;;
49237;SDS011;35069;47.906;1.892;2022-07-23T01:21:53;6.88;;;6.18;;
49237;SDS011;35069;47.906;1.892;2022-07-23T01:24:21;6.80;;;6.20;;
49237;SDS011;35069;47.906;1.892;2022-07-23T01:26:47;10.18;;;6.47;;
49237;SDS011;35069;47.906;1.892;2022-07-23T01:29:14;6.70;;;6.15;;
49237;SDS011;35069;47.906;1.892;2022-07-23T01:31:40;6.45;;;5.85;;
49237;SDS011;35069;47.906;1.892;2022-07-23T01:34:06;7.95;;;7.00;;
49237;SDS011;35069;47.906;1.892;2022-07-23T01:36:35;6.72;;;6.13;;
49237;SDS011;35069;47.906;1.892;2022-07-23T01:39:02;7.72;;;7.03;;
49237;SDS011;35069;47.906;1.892;2022-07-23T01:41:29;8.40;;;7.65;;
49237;SDS011;35069;47.906;1.892;2022-07-23T01:43:55;8.15;;;7.35;;
49237;SDS011;35069;47.906;1.892;2022-07-23T01:46:21;8.35;;;7.55;;
49237;SDS011;35069;47.906;1.892;2022-07-23T01:48:47;9.40;;;7.68;;
49237;SDS011;35069;47.906;1.892;2022-07-23T01:51:13;10.68;;;7.82;;
49237;SDS011;35069;47.906;1.892;2022-07-23T01:53:38;11.05;;;8.52;;
49237;SDS011;35069;47.906;1.892;2022-07-23T01:56:04;8.77;;;7.88;;
49237;SDS011;35069;47.906;1.892;2022-07-23T01:58:30;7.80;;;7.20;;
49237;SDS011;35069;47.906;1.892;2022-07-23T02:00:56;11.15;;;8.13;;
49237;SDS011;35069;47.906;1.892;2022-07-23T02:03:21;9.57;;;7.85;;
49237;SDS011;35069;47.906;1.892;2022-07-23T02:05:47;8.90;;;7.80;;
49237;SDS011;35069;47.906;1.892;2022-07-23T02:08:13;9.30;;;8.40;;
49237;SDS011;35069;47.906;1.892;2022-07-23T02:10:39;8.90;;;8.00;;
49237;SDS011;35069;47.906;1.892;2022-07-23T02:13:05;11.25;;;9.43;;
49237;SDS011;35069;47.906;1.892;2022-07-23T02:15:30;9.05;;;8.10;;
49237;SDS011;35069;47.906;1.892;2022-07-23T02:17:56;10.20;;;9.07;;
49237;SDS011;35069;47.906;1.892;2022-07-23T02:20:22;8.95;;;8.05;;
49237;SDS011;35069;47.906;1.892;2022-07-23T02:22:48;10.23;;;8.70;;
49237;SDS011;35069;47.906;1.892;2022-07-23T02:25:14;10.57;;;8.98;;
49237;SDS011;35069;47.906;1.892;2022-07-23T02:27:39;9.32;;;8.23;;
49237;SDS011;35069;47.906;1.892;2022-07-23T02:30:05;10.32;;;8.25;;
49237;SDS011;35069;47.906;1.892;2022-07-23T02:32:31;9.38;;;8.43;;
49237;SDS011;35069;47.906;1.892;2022-07-23T02:34:57;11.63;;;8.75;;
49237;SDS011;35069;47.906;1.892;2022-07-23T02:37:23;10.68;;;8.95;;
49237;SDS011;35069;47.906;1.892;2022-07-23T02:39:48;11.25;;;9.30;;
49237;SDS011;35069;47.906;1.892;2022-07-23T02:42:14;9.63;;;8.63;;
49237;SDS011;35069;47.906;1.892;2022-07-23T02:44:40;12.30;;;8.80;;
49237;SDS011;35069;47.906;1.892;2022-07-23T02:47:06;10.60;;;8.93;;
49237;SDS011;35069;47.906;1.892;2022-07-23T02:49:32;10.23;;;8.50;;
49237;SDS011;35069;47.906;1.892;2022-07-23T02:51:58;12.93;;;10.38;;
49237;SDS011;35069;47.906;1.892;2022-07-23T02:54:24;10.30;;;8.38;;
49237;SDS011;35069;47.906;1.892;2022-07-23T02:56:49;10.95;;;9.40;;
49237;SDS011;35069;47.906;1.892;2022-07-23T02:59:18;11.57;;;9.68;;
49237;SDS011;35069;47.906;1.892;2022-07-23T03:01:44;16.55;;;11.23;;
49237;SDS011;35069;47.906;1.892;2022-07-23T03:04:09;11.27;;;10.07;;
49237;SDS011;35069;47.906;1.892;2022-07-23T03:06:35;12.35;;;10.38;;
49237;SDS011;35069;47.906;1.892;2022-07-23T03:09:01;13.38;;;10.38;;
49237;SDS011;35069;47.906;1.892;2022-07-23T03:11:28;16.10;;;10.57;;
49237;SDS011;35069;47.906;1.892;2022-07-23T03:13:53;13.27;;;10.25;;
49237;SDS011;35069;47.906;1.892;2022-07-23T03:16:19;12.18;;;10.98;;
49237;SDS011;35069;47.906;1.892;2022-07-23T03:18:44;17.88;;;11.00;;
49237;SDS011;35069;47.906;1.892;2022-07-23T03:21:10;15.73;;;11.13;;
49237;SDS011;35069;47.906;1.892;2022-07-23T03:23:35;14.00;;;10.75;;
49237;SDS011;35069;47.906;1.892;2022-07-23T03:26:01;14.57;;;10.70;;
49237;SDS011;35069;47.906;1.892;2022-07-23T03:28:27;14.30;;;10.25;;
49237;SDS011;35069;47.906;1.892;2022-07-23T03:30:53;13.50;;;10.65;;
49237;SDS011;35069;47.906;1.892;2022-07-23T03:33:19;14.63;;;11.15;;
49237;SDS011;35069;47.906;1.892;2022-07-23T03:35:46;22.02;;;11.60;;
49237;SDS011;35069;47.906;1.892;2022-07-23T03:38:12;15.80;;;10.98;;
49237;SDS011;35069;47.906;1.892;2022-07-23T03:40:38;14.75;;;11.85;;
49237;SDS011;35069;47.906;1.892;2022-07-23T03:43:04;12.35;;;11.15;;
49237;SDS011;35069;47.906;1.892;2022-07-23T03:45:30;13.35;;;11.70;;
49237;SDS011;35069;47.906;1.892;2022-07-23T03:47:55;15.85;;;11.60;;
49237;SDS011;35069;47.906;1.892;2022-07-23T03:50:21;15.90;;;13.10;;
49237;SDS011;35069;47.906;1.892;2022-07-23T03:52:47;14.40;;;12.35;;
49237;SDS011;35069;47.906;1.892;2022-07-23T03:55:13;15.55;;;11.25;;
49237;SDS011;35069;47.906;1.892;2022-07-23T03:57:38;15.63;;;10.95;;
49237;SDS011;35069;47.906;1.892;2022-07-23T04:00:05;12.88;;;11.55;;
49237;SDS011;35069;47.906;1.892;2022-07-23T04:02:33;14.20;;;11.07;;
49237;SDS011;35069;47.906;1.892;2022-07-23T04:05:00;19.95;;;12.00;;
49237;SDS011;35069;47.906;1.892;2022-07-23T04:07:26;17.42;;;12.85;;
49237;SDS011;35069;47.906;1.892;2022-07-23T04:09:51;21.67;;;13.23;;
49237;SDS011;35069;47.906;1.892;2022-07-23T04:12:17;15.43;;;13.82;;
49237;SDS011;35069;47.906;1.892;2022-07-23T04:14:43;16.13;;;14.20;;
49237;SDS011;35069;47.906;1.892;2022-07-23T04:17:09;15.18;;;13.50;;
49237;SDS011;35069;47.906;1.892;2022-07-23T04:19:36;15.73;;;13.05;;
49237;SDS011;35069;47.906;1.892;2022-07-23T04:22:05;18.75;;;16.20;;
49237;SDS011;35069;47.906;1.892;2022-07-23T04:24:31;18.67;;;16.90;;
49237;SDS011;35069;47.906;1.892;2022-07-23T04:26:56;24.60;;;16.48;;
49237;SDS011;35069;47.906;1.892;2022-07-23T04:29:22;21.17;;;16.65;;
49237;SDS011;35069;47.906;1.892;2022-07-23T04:31:48;25.95;;;16.80;;
49237;SDS011;35069;47.906;1.892;2022-07-23T04:34:14;19.27;;;16.92;;
49237;SDS011;35069;47.906;1.892;2022-07-23T04:36:39;19.50;;;15.85;;
49237;SDS011;35069;47.906;1.892;2022-07-23T04:39:05;19.42;;;16.63;;
49237;SDS011;35069;47.906;1.892;2022-07-23T04:41:31;20.85;;;18.08;;
49237;SDS011;35069;47.906;1.892;2022-07-23T04:43:57;23.45;;;18.50;;
49237;SDS011;35069;47.906;1.892;2022-07-23T04:46:22;20.08;;;17.33;;
49237;SDS011;35069;47.906;1.892;2022-07-23T04:48:48;18.95;;;16.20;;
49237;SDS011;35069;47.906;1.892;2022-07-23T04:51:14;19.95;;;17.23;;
49237;SDS011;35069;47.906;1.892;2022-07-23T04:53:39;18.80;;;16.45;;
49237;SDS011;35069;47.906;1.892;2022-07-23T04:56:05;21.65;;;16.33;;
49237;SDS011;35069;47.906;1.892;2022-07-23T04:58:31;20.15;;;17.02;;
49237;SDS011;35069;47.906;1.892;2022-07-23T05:00:57;19.83;;;17.73;;
49237;SDS011;35069;47.906;1.892;2022-07-23T05:03:22;19.63;;;17.00;;
49237;SDS011;35069;47.906;1.892;2022-07-23T05:05:48;20.00;;;17.75;;
49237;SDS011;35069;47.906;1.892;2022-07-23T05:08:14;26.88;;;18.83;;
49237;SDS011;35069;47.906;1.892;2022-07-23T05:10:40;21.20;;;15.20;;
49237;SDS011;35069;47.906;1.892;2022-07-23T05:13:06;17.48;;;15.23;;
49237;SDS011;35069;47.906;1.892;2022-07-23T05:15:31;21.83;;;15.88;;
49237;SDS011;35069;47.906;1.892;2022-07-23T05:17:57;23.40;;;15.93;;
49237;SDS011;35069;47.906;1.892;2022-07-23T05:20:22;19.33;;;16.35;;
49237;SDS011;35069;47.906;1.892;2022-07-23T05:22:48;17.55;;;15.68;;
49237;SDS011;35069;47.906;1.892;2022-07-23T05:25:14;20.70;;;16.98;;
49237;SDS011;35069;47.906;1.892;2022-07-23T05:27:39;18.38;;;16.27;;
49237;SDS011;35069;47.906;1.892;2022-07-23T05:30:05;18.38;;;15.27;;
49237;SDS011;35069;47.906;1.892;2022-07-23T05:32:32;18.15;;;15.88;;
49237;SDS011;35069;47.906;1.892;2022-07-23T05:34:57;18.73;;;15.80;;
49237;SDS011;35069;47.906;1.892;2022-07-23T05:37:23;21.77;;;17.00;;
49237;SDS011;35069;47.906;1.892;2022-07-23T05:39:49;19.42;;;16.98;;
49237;SDS011;35069;47.906;1.892;2022-07-23T05:42:14;16.77;;;14.85;;
49237;SDS011;35069;47.906;1.892;2022-07-23T05:44:40;21.98;;;14.80;;
49237;SDS011;35069;47.906;1.892;2022-07-23T05:47:05;16.27;;;14.60;;
49237;SDS011;35069;47.906;1.892;2022-07-23T05:49:31;22.88;;;16.17;;
49237;SDS011;35069;47.906;1.892;2022-07-23T05:51:56;18.27;;;15.68;;
49237;SDS011;35069;47.906;1.892;2022-07-23T05:54:22;28.58;;;18.25;;
49237;SDS011;35069;47.906;1.892;2022-07-23T05:56:48;22.40;;;19.02;;
49237;SDS011;35069;47.906;1.892;2022-07-23T05:59:15;21.60;;;17.67;;
49237;SDS011;35069;47.906;1.892;2022-07-23T06:01:41;22.95;;;16.85;;
49237;SDS011;35069;47.906;1.892;2022-07-23T06:04:06;24.73;;;17.42;;
49237;SDS011;35069;47.906;1.892;2022-07-23T06:06:32;25.27;;;17.55;;
49237;SDS011;35069;47.906;1.892;2022-07-23T06:08:58;29.55;;;19.80;;
49237;SDS011;35069;47.906;1.892;2022-07-23T06:11:23;30.83;;;20.60;;
49237;SDS011;35069;47.906;1.892;2022-07-23T06:13:49;28.42;;;18.45;;
49237;SDS011;35069;47.906;1.892;2022-07-23T06:16:15;36.08;;;18.98;;
49237;SDS011;35069;47.906;1.892;2022-07-23T06:18:40;26.23;;;19.23;;
49237;SDS011;35069;47.906;1.892;2022-07-23T06:21:06;36.58;;;20.50;;
49237;SDS011;35069;47.906;1.892;2022-07-23T06:23:31;30.00;;;19.00;;
49237;SDS011;35069;47.906;1.892;2022-07-23T06:25:57;29.55;;;19.05;;
49237;SDS011;35069;47.906;1.892;2022-07-23T06:28:23;26.00;;;16.75;;
49237;SDS011;35069;47.906;1.892;2022-07-23T06:30:48;29.75;;;17.65;;
49237;SDS011;35069;47.906;1.892;2022-07-23T06:33:14;29.50;;;16.45;;
49237;SDS011;35069;47.906;1.892;2022-07-23T06:35:39;28.35;;;15.43;;
49237;SDS011;35069;47.906;1.892;2022-07-23T06:38:05;20.52;;;16.55;;
49237;SDS011;35069;47.906;1.892;2022-07-23T06:40:30;25.85;;;16.98;;
49237;SDS011;35069;47.906;1.892;2022-07-23T06:42:56;26.92;;;15.20;;
49237;SDS011;35069;47.906;1.892;2022-07-23T06:45:22;22.23;;;15.70;;
49237;SDS011;35069;47.906;1.892;2022-07-23T06:47:47;22.98;;;15.52;;
49237;SDS011;35069;47.906;1.892;2022-07-23T06:50:13;21.98;;;15.98;;
49237;SDS011;35069;47.906;1.892;2022-07-23T06:52:38;17.77;;;14.85;;
49237;SDS011;35069;47.906;1.892;2022-07-23T06:55:04;19.83;;;15.40;;
49237;SDS011;35069;47.906;1.892;2022-07-23T06:57:30;19.38;;;15.02;;
49237;SDS011;35069;47.906;1.892;2022-07-23T06:59:56;21.15;;;16.35;;
49237;SDS011;35069;47.906;1.892;2022-07-23T07:02:21;20.27;;;14.30;;
49237;SDS011;35069;47.906;1.892;2022-07-23T07:04:47;21.45;;;14.05;;
49237;SDS011;35069;47.906;1.892;2022-07-23T07:07:13;23.50;;;14.18;;
49237;SDS011;35069;47.906;1.892;2022-07-23T07:09:39;18.10;;;14.07;;
49237;SDS011;35069;47.906;1.892;2022-07-23T07:12:04;16.90;;;12.70;;
49237;SDS011;35069;47.906;1.892;2022-07-23T07:14:30;18.08;;;14.65;;
49237;SDS011;35069;47.906;1.892;2022-07-23T07:16:56;16.67;;;12.60;;
49237;SDS011;35069;47.906;1.892;2022-07-23T07:19:21;14.73;;;13.07;;
49237;SDS011;35069;47.906;1.892;2022-07-23T07:21:47;12.88;;;11.27;;
49237;SDS011;35069;47.906;1.892;2022-07-23T07:24:13;19.35;;;13.95;;
49237;SDS011;35069;47.906;1.892;2022-07-23T07:26:38;16.85;;;12.80;;
49237;SDS011;35069;47.906;1.892;2022-07-23T07:29:04;19.42;;;11.27;;
49237;SDS011;35069;47.906;1.892;2022-07-23T07:31:31;15.80;;;11.45;;
49237;SDS011;35069;47.906;1.892;2022-07-23T07:33:57;17.92;;;12.60;;
49237;SDS011;35069;47.906;1.892;2022-07-23T07:36:23;16.52;;;12.20;;
49237;SDS011;35069;47.906;1.892;2022-07-23T07:38:49;14.30;;;11.55;;
49237;SDS011;35069;47.906;1.892;2022-07-23T07:41:15;13.40;;;12.07;;
49237;SDS011;35069;47.906;1.892;2022-07-23T07:43:40;16.45;;;12.63;;
49237;SDS011;35069;47.906;1.892;2022-07-23T07:46:06;13.98;;;11.88;;
49237;SDS011;35069;47.906;1.892;2022-07-23T07:48:35;13.10;;;10.63;;
49237;SDS011;35069;47.906;1.892;2022-07-23T07:51:01;18.02;;;11.23;;
49237;SDS011;35069;47.906;1.892;2022-07-23T07:53:28;15.95;;;11.57;;
49237;SDS011;35069;47.906;1.892;2022-07-23T07:55:53;16.27;;;11.85;;
49237;SDS011;35069;47.906;1.892;2022-07-23T07:58:19;17.00;;;12.40;;
49237;SDS011;35069;47.906;1.892;2022-07-23T08:00:44;11.77;;;10.68;;
49237;SDS011;35069;47.906;1.892;2022-07-23T08:03:10;12.20;;;10.85;;
49237;SDS011;35069;47.906;1.892;2022-07-23T08:05:36;14.52;;;11.60;;
49237;SDS011;35069;47.906;1.892;2022-07-23T08:08:01;15.38;;;11.65;;
49237;SDS011;35069;47.906;1.892;2022-07-23T08:10:27;15.82;;;10.30;;
49237;SDS011;35069;47.906;1.892;2022-07-23T08:12:55;14.80;;;10.50;;
49237;SDS011;35069;47.906;1.892;2022-07-23T08:15:22;16.52;;;11.30;;
49237;SDS011;35069;47.906;1.892;2022-07-23T08:17:48;13.35;;;10.40;;
49237;SDS011;35069;47.906;1.892;2022-07-23T08:20:15;16.95;;;10.38;;
49237;SDS011;35069;47.906;1.892;2022-07-23T08:22:47;11.95;;;10.43;;
49237;SDS011;35069;47.906;1.892;2022-07-23T08:25:24;12.73;;;10.35;;
49237;SDS011;35069;47.906;1.892;2022-07-23T08:27:51;17.42;;;10.68;;
49237;SDS011;35069;47.906;1.892;2022-07-23T08:30:17;13.40;;;10.85;;
49237;SDS011;35069;47.906;1.892;2022-07-23T08:32:50;15.85;;;10.23;;
49237;SDS011;35069;47.906;1.892;2022-07-23T08:35:22;14.27;;;10.02;;
49237;SDS011;35069;47.906;1.892;2022-07-23T08:37:49;13.07;;;10.43;;
49237;SDS011;35069;47.906;1.892;2022-07-23T08:40:15;11.88;;;10.35;;
49237;SDS011;35069;47.906;1.892;2022-07-23T08:42:41;17.38;;;11.27;;
49237;SDS011;35069;47.906;1.892;2022-07-23T08:45:07;13.38;;;10.60;;
49237;SDS011;35069;47.906;1.892;2022-07-23T08:47:35;17.35;;;10.45;;
49237;SDS011;35069;47.906;1.892;2022-07-23T08:50:03;13.40;;;9.05;;
49237;SDS011;35069;47.906;1.892;2022-07-23T08:52:30;11.40;;;9.60;;
49237;SDS011;35069;47.906;1.892;2022-07-23T08:54:56;13.27;;;9.63;;
49237;SDS011;35069;47.906;1.892;2022-07-23T08:57:22;15.57;;;11.13;;
49237;SDS011;35069;47.906;1.892;2022-07-23T08:59:47;13.65;;;9.50;;
49237;SDS011;35069;47.906;1.892;2022-07-23T09:02:13;12.88;;;9.85;;
49237;SDS011;35069;47.906;1.892;2022-07-23T09:04:38;16.20;;;10.20;;
49237;SDS011;35069;47.906;1.892;2022-07-23T09:07:04;10.63;;;8.82;;
49237;SDS011;35069;47.906;1.892;2022-07-23T09:09:30;11.32;;;8.57;;
49237;SDS011;35069;47.906;1.892;2022-07-23T09:12:06;12.35;;;9.10;;
49237;SDS011;35069;47.906;1.892;2022-07-23T09:14:38;13.45;;;8.63;;
49237;SDS011;35069;47.906;1.892;2022-07-23T09:17:11;11.45;;;8.85;;
49237;SDS011;35069;47.906;1.892;2022-07-23T09:19:39;10.67;;;9.57;;
49237;SDS011;35069;47.906;1.892;2022-07-23T09:22:16;11.68;;;8.55;;
49237;SDS011;35069;47.906;1.892;2022-07-23T09:27:45;10.20;;;6.88;;
49237;SDS011;35069;47.906;1.892;2022-07-23T09:30:19;10.18;;;6.72;;
49237;SDS011;35069;47.906;1.892;2022-07-23T09:33:03;6.93;;;6.22;;
49237;SDS011;35069;47.906;1.892;2022-07-23T09:38:19;8.50;;;6.57;;
49237;SDS011;35069;47.906;1.892;2022-07-23T09:41:04;8.80;;;7.10;;
49237;SDS011;35069;47.906;1.892;2022-07-23T09:43:35;8.93;;;7.30;;
49237;SDS011;35069;47.906;1.892;2022-07-23T09:46:16;10.43;;;6.35;;
49237;SDS011;35069;47.906;1.892;2022-07-23T09:48:48;7.28;;;6.57;;
49237;SDS011;35069;47.906;1.892;2022-07-23T09:51:14;7.32;;;6.28;;
49237;SDS011;35069;47.906;1.892;2022-07-23T09:53:50;8.82;;;6.40;;
49237;SDS011;35069;47.906;1.892;2022-07-23T09:56:16;7.13;;;6.43;;
49237;SDS011;35069;47.906;1.892;2022-07-23T09:58:45;6.88;;;6.35;;
49237;SDS011;35069;47.906;1.892;2022-07-23T10:01:15;9.32;;;6.78;;
49237;SDS011;35069;47.906;1.892;2022-07-23T10:03:41;10.32;;;6.75;;
49237;SDS011;35069;47.906;1.892;2022-07-23T10:06:10;14.48;;;6.70;;
49237;SDS011;35069;47.906;1.892;2022-07-23T10:08:39;6.93;;;6.07;;
49237;SDS011;35069;47.906;1.892;2022-07-23T10:11:09;12.07;;;6.97;;
49237;SDS011;35069;47.906;1.892;2022-07-23T10:13:38;8.20;;;7.50;;
49237;SDS011;35069;47.906;1.892;2022-07-23T10:16:13;11.95;;;6.60;;
49237;SDS011;35069;47.906;1.892;2022-07-23T10:18:39;9.13;;;7.25;;
49237;SDS011;35069;47.906;1.892;2022-07-23T10:21:06;7.35;;;6.70;;
49237;SDS011;35069;47.906;1.892;2022-07-23T10:23:35;8.93;;;6.78;;
49237;SDS011;35069;47.906;1.892;2022-07-23T10:26:16;7.25;;;6.55;;
49237;SDS011;35069;47.906;1.892;2022-07-23T10:28:57;6.93;;;6.25;;
49237;SDS011;35069;47.906;1.892;2022-07-23T10:37:35;6.28;;;5.15;;
49237;SDS011;35069;47.906;1.892;2022-07-23T10:42:49;5.13;;;4.70;;
49237;SDS011;35069;47.906;1.892;2022-07-23T10:45:30;9.77;;;5.43;;
49237;SDS011;35069;47.906;1.892;2022-07-23T10:50:38;4.82;;;4.40;;
49237;SDS011;35069;47.906;1.892;2022-07-23T10:53:12;5.15;;;4.63;;
49237;SDS011;35069;47.906;1.892;2022-07-23T10:58:08;6.05;;;4.70;;
49237;SDS011;35069;47.906;1.892;2022-07-23T11:00:34;5.15;;;4.75;;
49237;SDS011;35069;47.906;1.892;2022-07-23T11:03:04;6.15;;;4.95;;
49237;SDS011;35069;47.906;1.892;2022-07-23T11:05:50;6.57;;;5.72;;
49237;SDS011;35069;47.906;1.892;2022-07-23T11:08:17;6.68;;;6.07;;
49237;SDS011;35069;47.906;1.892;2022-07-23T11:10:46;6.03;;;5.53;;
49237;SDS011;35069;47.906;1.892;2022-07-23T11:31:55;9.30;;;5.63;;
49237;SDS011;35069;47.906;1.892;2022-07-23T11:37:00;5.40;;;5.00;;
49237;SDS011;35069;47.906;1.892;2022-07-23T11:39:28;7.30;;;5.53;;
49237;SDS011;35069;47.906;1.892;2022-07-23T11:41:55;7.50;;;6.60;;
49237;SDS011;35069;47.906;1.892;2022-07-23T11:44:29;7.55;;;6.28;;
49237;SDS011;35069;47.906;1.892;2022-07-23T11:46:57;8.80;;;5.60;;
49237;SDS011;35069;47.906;1.892;2022-07-23T11:49:24;6.65;;;6.00;;
49237;SDS011;35069;47.906;1.892;2022-07-23T11:54:32;8.82;;;6.07;;
49237;SDS011;35069;47.906;1.892;2022-07-23T11:56:59;6.88;;;5.40;;
49237;SDS011;35069;47.906;1.892;2022-07-23T11:59:27;5.88;;;5.05;;
49237;SDS011;35069;47.906;1.892;2022-07-23T12:04:23;6.25;;;5.28;;
49237;SDS011;35069;47.906;1.892;2022-07-23T12:06:49;5.93;;;5.43;;
49237;SDS011;35069;47.906;1.892;2022-07-23T12:09:14;7.10;;;5.55;;
49237;SDS011;35069;47.906;1.892;2022-07-23T12:11:56;5.30;;;4.90;;
49237;SDS011;35069;47.906;1.892;2022-07-23T12:14:23;6.38;;;5.38;;
49237;SDS011;35069;47.906;1.892;2022-07-23T12:17:06;6.43;;;5.80;;
49237;SDS011;35069;47.906;1.892;2022-07-23T12:19:32;5.78;;;5.10;;
49237;SDS011;35069;47.906;1.892;2022-07-23T12:21:58;7.88;;;6.25;;
49237;SDS011;35069;47.906;1.892;2022-07-23T12:24:24;15.70;;;6.05;;
49237;SDS011;35069;47.906;1.892;2022-07-23T12:27:10;8.65;;;4.85;;
49237;SDS011;35069;47.906;1.892;2022-07-23T12:29:37;5.65;;;5.15;;
49237;SDS011;35069;47.906;1.892;2022-07-23T12:32:15;6.53;;;5.93;;
49237;SDS011;35069;47.906;1.892;2022-07-23T12:34:47;5.93;;;5.38;;
49237;SDS011;35069;47.906;1.892;2022-07-23T12:37:29;6.13;;;5.13;;
49237;SDS011;35069;47.906;1.892;2022-07-23T12:39:56;6.75;;;5.95;;
49237;SDS011;35069;47.906;1.892;2022-07-23T12:42:22;5.75;;;5.25;;
49237;SDS011;35069;47.906;1.892;2022-07-23T12:47:50;5.65;;;5.25;;
49237;SDS011;35069;47.906;1.892;2022-07-23T12:50:30;6.35;;;5.72;;
49237;SDS011;35069;47.906;1.892;2022-07-23T12:53:14;5.72;;;5.22;;
49237;SDS011;35069;47.906;1.892;2022-07-23T12:55:57;6.03;;;5.30;;
49237;SDS011;35069;47.906;1.892;2022-07-23T12:58:39;6.07;;;5.30;;
49237;SDS011;35069;47.906;1.892;2022-07-23T13:01:05;7.03;;;5.00;;
49237;SDS011;35069;47.906;1.892;2022-07-23T13:03:32;7.47;;;5.80;;
49237;SDS011;35069;47.906;1.892;2022-07-23T13:06:00;5.32;;;4.78;;
49237;SDS011;35069;47.906;1.892;2022-07-23T13:08:28;5.63;;;5.20;;
49237;SDS011;35069;47.906;1.892;2022-07-23T13:10:54;7.88;;;5.13;;
49237;SDS011;35069;47.906;1.892;2022-07-23T13:13:24;5.88;;;5.38;;
49237;SDS011;35069;47.906;1.892;2022-07-23T13:15:56;5.88;;;5.25;;
49237;SDS011;35069;47.906;1.892;2022-07-23T13:18:23;12.05;;;5.47;;
49237;SDS011;35069;47.906;1.892;2022-07-23T13:20:49;8.25;;;5.28;;
49237;SDS011;35069;47.906;1.892;2022-07-23T13:23:15;8.77;;;5.05;;
49237;SDS011;35069;47.906;1.892;2022-07-23T13:25:41;5.68;;;5.18;;
49237;SDS011;35069;47.906;1.892;2022-07-23T13:28:08;6.90;;;5.40;;
49237;SDS011;35069;47.906;1.892;2022-07-23T13:30:34;5.15;;;4.75;;
49237;SDS011;35069;47.906;1.892;2022-07-23T13:33:01;5.63;;;5.03;;
49237;SDS011;35069;47.906;1.892;2022-07-23T13:35:28;8.35;;;4.97;;
49237;SDS011;35069;47.906;1.892;2022-07-23T13:37:54;5.72;;;5.22;;
49237;SDS011;35069;47.906;1.892;2022-07-23T13:40:20;6.63;;;4.78;;
49237;SDS011;35069;47.906;1.892;2022-07-23T13:42:46;8.57;;;5.07;;
49237;SDS011;35069;47.906;1.892;2022-07-23T13:45:11;6.00;;;5.47;;
49237;SDS011;35069;47.906;1.892;2022-07-23T13:47:37;5.97;;;5.18;;
49237;SDS011;35069;47.906;1.892;2022-07-23T13:50:03;5.90;;;4.97;;
49237;SDS011;35069;47.906;1.892;2022-07-23T13:52:29;5.05;;;4.28;;
49237;SDS011;35069;47.906;1.892;2022-07-23T13:54:55;8.00;;;4.75;;
49237;SDS011;35069;47.906;1.892;2022-07-23T13:57:21;10.75;;;4.90;;
49237;SDS011;35069;47.906;1.892;2022-07-23T13:59:46;7.10;;;4.80;;
49237;SDS011;35069;47.906;1.892;2022-07-23T14:02:12;6.53;;;5.30;;
49237;SDS011;35069;47.906;1.892;2022-07-23T14:04:40;8.23;;;4.90;;
49237;SDS011;35069;47.906;1.892;2022-07-23T14:07:06;5.53;;;4.88;;
49237;SDS011;35069;47.906;1.892;2022-07-23T14:09:31;6.95;;;4.43;;
49237;SDS011;35069;47.906;1.892;2022-07-23T14:11:58;7.70;;;5.63;;
49237;SDS011;35069;47.906;1.892;2022-07-23T14:14:25;6.78;;;5.07;;
49237;SDS011;35069;47.906;1.892;2022-07-23T14:16:51;6.15;;;5.55;;
49237;SDS011;35069;47.906;1.892;2022-07-23T14:19:17;5.70;;;4.50;;
49237;SDS011;35069;47.906;1.892;2022-07-23T14:21:42;6.95;;;5.03;;
49237;SDS011;35069;47.906;1.892;2022-07-23T14:24:08;7.13;;;4.55;;
49237;SDS011;35069;47.906;1.892;2022-07-23T14:26:34;11.40;;;5.72;;
49237;SDS011;35069;47.906;1.892;2022-07-23T14:28:59;5.07;;;4.55;;
49237;SDS011;35069;47.906;1.892;2022-07-23T14:31:26;5.63;;;4.25;;
49237;SDS011;35069;47.906;1.892;2022-07-23T14:33:51;7.32;;;4.90;;
49237;SDS011;35069;47.906;1.892;2022-07-23T14:36:17;5.65;;;4.55;;
49237;SDS011;35069;47.906;1.892;2022-07-23T14:38:42;7.68;;;4.78;;
49237;SDS011;35069;47.906;1.892;2022-07-23T14:41:08;5.10;;;4.60;;
49237;SDS011;35069;47.906;1.892;2022-07-23T14:43:34;5.40;;;4.90;;
49237;SDS011;35069;47.906;1.892;2022-07-23T14:46:00;6.20;;;4.72;;
49237;SDS011;35069;47.906;1.892;2022-07-23T14:48:26;5.70;;;4.15;;
49237;SDS011;35069;47.906;1.892;2022-07-23T14:50:51;4.85;;;4.28;;
49237;SDS011;35069;47.906;1.892;2022-07-23T14:53:17;5.07;;;4.68;;
49237;SDS011;35069;47.906;1.892;2022-07-23T14:55:43;5.47;;;4.97;;
49237;SDS011;35069;47.906;1.892;2022-07-23T14:58:08;5.32;;;4.80;;
49237;SDS011;35069;47.906;1.892;2022-07-23T15:00:34;4.60;;;4.20;;
49237;SDS011;35069;47.906;1.892;2022-07-23T15:03:00;4.50;;;4.20;;
49237;SDS011;35069;47.906;1.892;2022-07-23T15:05:25;5.53;;;4.63;;
49237;SDS011;35069;47.906;1.892;2022-07-23T15:07:52;4.68;;;4.28;;
49237;SDS011;35069;47.906;1.892;2022-07-23T15:10:18;6.75;;;5.32;;
49237;SDS011;35069;47.906;1.892;2022-07-23T15:12:43;4.80;;;4.13;;
49237;SDS011;35069;47.906;1.892;2022-07-23T15:15:09;4.80;;;4.28;;
49237;SDS011;35069;47.906;1.892;2022-07-23T15:17:35;4.97;;;4.32;;
49237;SDS011;35069;47.906;1.892;2022-07-23T15:20:00;5.68;;;5.10;;
49237;SDS011;35069;47.906;1.892;2022-07-23T15:22:26;4.53;;;4.13;;
49237;SDS011;35069;47.906;1.892;2022-07-23T15:24:53;6.75;;;5.00;;